RUK32T EDDS-EGAA
Flight info
| Callsign | RUK32T |
|---|---|
| Flight time | 1h 50m |
| Altitude | 36000 |
| Route | VESID2H/07 VESID Y127 TUDGA Z114 ADENU L608 LIRSU DCT LNO N852 TERLA L608 DENUT L610 LAM UN57 WELIN T420 TNT UL28 RODOL UP6 TUPEM DCT REMSI DCT MASOP DCT NELBO DCT IPSET DCT |
| Aircraft | B738/M-SDE2E3FGHIRWXY/LB1 |
Departure
| Time | 2026-05-04 15:10 |
|---|---|
| Airport | Stuttgart Airport (EDDS) |
Arrival
| Time | 2026-05-04 17:00 |
|---|---|
| Airport | Belfast International Airport (EGAA) |
| Time | Latitude | Longitude | Altitude | Speed | Heading |
|---|---|---|---|---|---|
| 2026-05-04 14:37 | 48.68962 | 9.20287 | 1284 ft | 0 kts | 164° |
| 2026-05-04 15:04 | 48.68958 | 9.20289 | 1288 ft | 2 kts | 164° |
| 2026-05-04 15:04 | 48.68937 | 9.20298 | 1284 ft | 4 kts | 163° |
| 2026-05-04 15:04 | 48.68907 | 9.20311 | 1285 ft | 5 kts | 171° |
| 2026-05-04 15:04 | 48.68883 | 9.20284 | 1288 ft | 5 kts | 250° |
| 2026-05-04 15:05 | 48.68872 | 9.20224 | 1285 ft | 7 kts | 255° |
| 2026-05-04 15:05 | 48.68858 | 9.20148 | 1289 ft | 8 kts | 255° |
| 2026-05-04 15:05 | 48.68844 | 9.20072 | 1288 ft | 7 kts | 254° |
| 2026-05-04 15:05 | 48.68826 | 9.20001 | 1286 ft | 7 kts | 233° |
| 2026-05-04 15:06 | 48.68784 | 9.19967 | 1284 ft | 7 kts | 192° |
| 2026-05-04 15:06 | 48.68735 | 9.19965 | 1284 ft | 7 kts | 172° |
| 2026-05-04 15:06 | 48.68696 | 9.19981 | 1287 ft | 5 kts | 164° |
| 2026-05-04 15:07 | 48.68680 | 9.19988 | 1285 ft | 0 kts | 164° |
| 2026-05-04 15:07 | 48.68674 | 9.19990 | 1288 ft | 3 kts | 163° |
| 2026-05-04 15:07 | 48.68639 | 9.20006 | 1289 ft | 8 kts | 163° |
| 2026-05-04 15:08 | 48.68587 | 9.20062 | 1284 ft | 10 kts | 104° |
| 2026-05-04 15:08 | 48.68597 | 9.20134 | 1284 ft | 0 kts | 74° |
| 2026-05-04 15:08 | 48.68604 | 9.20172 | 1285 ft | 17 kts | 74° |
| 2026-05-04 15:09 | 48.68704 | 9.20702 | 1286 ft | 87 kts | 74° |
| 2026-05-04 15:09 | 48.68930 | 9.21886 | 1285 ft | 146 kts | 74° |
| 2026-05-04 15:09 | 48.69250 | 9.23602 | 1427 ft | 184 kts | 70° |
| 2026-05-04 15:10 | 48.69949 | 9.27092 | 3246 ft | 169 kts | 71° |
| 2026-05-04 15:10 | 48.70238 | 9.28909 | 3682 ft | 185 kts | 76° |
| 2026-05-04 15:10 | 48.70886 | 9.32627 | 4832 ft | 190 kts | 69° |
| 2026-05-04 15:11 | 48.71291 | 9.34603 | 5004 ft | 213 kts | 71° |
| 2026-05-04 15:11 | 48.71741 | 9.36862 | 5118 ft | 233 kts | 72° |
| 2026-05-04 15:11 | 48.72220 | 9.39285 | 5344 ft | 246 kts | 71° |
| 2026-05-04 15:11 | 48.73109 | 9.41507 | 5695 ft | 253 kts | 41° |
| 2026-05-04 15:12 | 48.74690 | 9.42711 | 6081 ft | 261 kts | 15° |
| 2026-05-04 15:12 | 48.76492 | 9.43206 | 6569 ft | 265 kts | 8° |
| 2026-05-04 15:12 | 48.78346 | 9.43381 | 7048 ft | 269 kts | 351° |
| 2026-05-04 15:12 | 48.80079 | 9.42316 | 7450 ft | 271 kts | 322° |
| 2026-05-04 15:13 | 48.81439 | 9.40394 | 8067 ft | 267 kts | 310° |
| 2026-05-04 15:13 | 48.82716 | 9.38224 | 8285 ft | 286 kts | 309° |
| 2026-05-04 15:13 | 48.84039 | 9.35904 | 8855 ft | 293 kts | 308° |
| 2026-05-04 15:13 | 48.85372 | 9.33565 | 9609 ft | 294 kts | 308° |
| 2026-05-04 15:14 | 48.86719 | 9.31211 | 10303 ft | 297 kts | 308° |
| 2026-05-04 15:14 | 48.88092 | 9.28820 | 10782 ft | 308 kts | 308° |
| 2026-05-04 15:14 | 48.89556 | 9.26275 | 10938 ft | 329 kts | 308° |
| 2026-05-04 15:14 | 48.91108 | 9.23583 | 11152 ft | 348 kts | 308° |
| 2026-05-04 15:15 | 48.92687 | 9.20858 | 11841 ft | 348 kts | 308° |
| 2026-05-04 15:15 | 48.94294 | 9.18086 | 12499 ft | 351 kts | 308° |
| 2026-05-04 15:15 | 48.95922 | 9.15275 | 13082 ft | 357 kts | 308° |
| 2026-05-04 15:16 | 48.99230 | 9.09557 | 14448 ft | 363 kts | 308° |
| 2026-05-04 15:16 | 49.00903 | 9.06657 | 15110 ft | 367 kts | 308° |
| 2026-05-04 15:16 | 49.04303 | 9.00753 | 16374 ft | 374 kts | 308° |
| 2026-05-04 15:17 | 49.05992 | 8.97819 | 16964 ft | 378 kts | 308° |
| 2026-05-04 15:17 | 49.09477 | 8.91748 | 18135 ft | 387 kts | 307° |
| 2026-05-04 15:17 | 49.11257 | 8.88645 | 18655 ft | 390 kts | 307° |
| 2026-05-04 15:18 | 49.13048 | 8.85517 | 19210 ft | 392 kts | 308° |
| 2026-05-04 15:18 | 49.14919 | 8.82472 | 19803 ft | 396 kts | 317° |
| 2026-05-04 15:18 | 49.17345 | 8.80389 | 20296 ft | 407 kts | 339° |
| 2026-05-04 15:19 | 49.23072 | 8.79973 | 21253 ft | 423 kts | 4° |
| 2026-05-04 15:19 | 49.26014 | 8.80462 | 21707 ft | 427 kts | 4° |
| 2026-05-04 15:19 | 49.31970 | 8.81362 | 22626 ft | 433 kts | 3° |
| 2026-05-04 15:20 | 49.34981 | 8.81774 | 23095 ft | 436 kts | 3° |
| 2026-05-04 15:20 | 49.38019 | 8.82185 | 23545 ft | 440 kts | 3° |
| 2026-05-04 15:20 | 49.41078 | 8.82603 | 23910 ft | 443 kts | 3° |
| 2026-05-04 15:20 | 49.44173 | 8.83034 | 23951 ft | 451 kts | 3° |
| 2026-05-04 15:21 | 49.47255 | 8.83469 | 23961 ft | 450 kts | 3° |
| 2026-05-04 15:21 | 49.50359 | 8.83910 | 23964 ft | 446 kts | 3° |
| 2026-05-04 15:21 | 49.56471 | 8.83816 | 23964 ft | 436 kts | 339° |
| 2026-05-04 15:22 | 49.59196 | 8.81867 | 23984 ft | 429 kts | 323° |
| 2026-05-04 15:22 | 49.61474 | 8.78977 | 23964 ft | 422 kts | 307° |
| 2026-05-04 15:22 | 49.64809 | 8.71629 | 23980 ft | 418 kts | 298° |
| 2026-05-04 15:23 | 49.66386 | 8.67859 | 23977 ft | 418 kts | 298° |
| 2026-05-04 15:23 | 49.67977 | 8.64099 | 23968 ft | 418 kts | 299° |
| 2026-05-04 15:23 | 49.69568 | 8.60394 | 24051 ft | 422 kts | 300° |
| 2026-05-04 15:23 | 49.71200 | 8.56626 | 24533 ft | 420 kts | 300° |
| 2026-05-04 15:24 | 49.74351 | 8.49059 | 25456 ft | 417 kts | 292° |
| 2026-05-04 15:24 | 49.76186 | 8.40613 | 26167 ft | 415 kts | 279° |
| 2026-05-04 15:25 | 49.76853 | 8.36258 | 26574 ft | 417 kts | 279° |
| 2026-05-04 15:25 | 49.77521 | 8.31891 | 26985 ft | 419 kts | 279° |
| 2026-05-04 15:25 | 49.78204 | 8.27501 | 27361 ft | 421 kts | 279° |
| 2026-05-04 15:26 | 49.79591 | 8.18730 | 28059 ft | 424 kts | 279° |
| 2026-05-04 15:26 | 49.80297 | 8.14288 | 28408 ft | 426 kts | 279° |
| 2026-05-04 15:26 | 49.81718 | 8.05329 | 29023 ft | 430 kts | 279° |
| 2026-05-04 15:27 | 49.82440 | 8.00818 | 29348 ft | 432 kts | 280° |
| 2026-05-04 15:27 | 49.84079 | 7.91930 | 30031 ft | 435 kts | 282° |
| 2026-05-04 15:28 | 49.85804 | 7.82991 | 30792 ft | 431 kts | 282° |
| 2026-05-04 15:28 | 49.86652 | 7.78534 | 31097 ft | 431 kts | 281° |
| 2026-05-04 15:28 | 49.88311 | 7.69665 | 31725 ft | 431 kts | 281° |
| 2026-05-04 15:29 | 49.89137 | 7.65199 | 32027 ft | 432 kts | 281° |
| 2026-05-04 15:30 | 49.92417 | 7.47347 | 33621 ft | 429 kts | 281° |
| 2026-05-04 15:30 | 49.94847 | 7.34011 | 34413 ft | 427 kts | 281° |
| 2026-05-04 15:31 | 49.96447 | 7.25181 | 34827 ft | 428 kts | 281° |
| 2026-05-04 15:31 | 49.97251 | 7.20723 | 35044 ft | 428 kts | 281° |
| 2026-05-04 15:32 | 49.99636 | 7.07444 | 35859 ft | 425 kts | 281° |
| 2026-05-04 15:32 | 50.01209 | 6.98634 | 35983 ft | 430 kts | 281° |
| 2026-05-04 15:34 | 50.07277 | 6.77520 | 35990 ft | 432 kts | 295° |
| 2026-05-04 15:34 | 50.11678 | 6.65254 | 35994 ft | 433 kts | 294° |
| 2026-05-04 15:35 | 50.16054 | 6.52839 | 35978 ft | 437 kts | 294° |
| 2026-05-04 15:36 | 50.20985 | 6.40807 | 36009 ft | 445 kts | 306° |
| 2026-05-04 15:36 | 50.25006 | 6.33537 | 35991 ft | 445 kts | 306° |
| 2026-05-04 15:37 | 50.29047 | 6.26210 | 35991 ft | 445 kts | 306° |
| 2026-05-04 15:37 | 50.33052 | 6.18834 | 35995 ft | 444 kts | 305° |
| 2026-05-04 15:38 | 50.37035 | 6.11434 | 35988 ft | 444 kts | 305° |
| 2026-05-04 15:38 | 50.40986 | 6.04071 | 35986 ft | 444 kts | 305° |
| 2026-05-04 15:39 | 50.44911 | 5.96738 | 35992 ft | 444 kts | 305° |
| 2026-05-04 15:40 | 50.50849 | 5.85605 | 36007 ft | 443 kts | 305° |
| 2026-05-04 15:40 | 50.54807 | 5.78161 | 35992 ft | 445 kts | 305° |
| 2026-05-04 15:41 | 50.59316 | 5.71542 | 35996 ft | 455 kts | 324° |
| 2026-05-04 15:41 | 50.62158 | 5.69245 | 35982 ft | 462 kts | 336° |
| 2026-05-04 15:41 | 50.65185 | 5.67558 | 35980 ft | 461 kts | 330° |
| 2026-05-04 15:41 | 50.67770 | 5.64757 | 35985 ft | 446 kts | 308° |
| 2026-05-04 15:42 | 50.69500 | 5.60800 | 35996 ft | 433 kts | 289° |
| 2026-05-04 15:42 | 50.71354 | 5.51883 | 35997 ft | 428 kts | 282° |
| 2026-05-04 15:43 | 50.73063 | 5.42885 | 35988 ft | 429 kts | 283° |
| 2026-05-04 15:43 | 50.74853 | 5.33927 | 36030 ft | 435 kts | 284° |
| 2026-05-04 15:44 | 50.76672 | 5.24710 | 35999 ft | 441 kts | 282° |
| 2026-05-04 15:44 | 50.78444 | 5.15543 | 35946 ft | 430 kts | 282° |
| 2026-05-04 15:45 | 50.80197 | 5.06570 | 35964 ft | 427 kts | 283° |
| 2026-05-04 15:45 | 50.81913 | 4.97689 | 35977 ft | 427 kts | 282° |
| 2026-05-04 15:46 | 50.83614 | 4.88744 | 35979 ft | 429 kts | 282° |
| 2026-05-04 15:46 | 50.85332 | 4.79682 | 35979 ft | 431 kts | 282° |
| 2026-05-04 15:47 | 50.87055 | 4.70559 | 35977 ft | 434 kts | 282° |
| 2026-05-04 15:47 | 50.88784 | 4.61371 | 35971 ft | 437 kts | 282° |
| 2026-05-04 15:48 | 50.90755 | 4.52229 | 35962 ft | 444 kts | 292° |
| 2026-05-04 15:48 | 50.95573 | 4.39630 | 35970 ft | 449 kts | 298° |
| 2026-05-04 15:49 | 50.98868 | 4.31214 | 35965 ft | 449 kts | 297° |
| 2026-05-04 15:49 | 51.02115 | 4.22765 | 35971 ft | 448 kts | 297° |
| 2026-05-04 15:50 | 51.05342 | 4.14292 | 35971 ft | 447 kts | 297° |
| 2026-05-04 15:50 | 51.08526 | 4.05896 | 35968 ft | 446 kts | 297° |
| 2026-05-04 15:51 | 51.11687 | 3.97542 | 35967 ft | 445 kts | 297° |
| 2026-05-04 15:51 | 51.14866 | 3.89109 | 35965 ft | 443 kts | 297° |
| 2026-05-04 15:52 | 51.18027 | 3.80698 | 35966 ft | 442 kts | 297° |
| 2026-05-04 15:52 | 51.21180 | 3.72285 | 35972 ft | 442 kts | 297° |
| 2026-05-04 15:53 | 51.23895 | 3.63657 | 35964 ft | 435 kts | 283° |
| 2026-05-04 15:53 | 51.25172 | 3.54322 | 35974 ft | 431 kts | 277° |
| 2026-05-04 15:54 | 51.26343 | 3.44928 | 35969 ft | 432 kts | 278° |
| 2026-05-04 15:54 | 51.27572 | 3.35534 | 35984 ft | 433 kts | 278° |
| 2026-05-04 15:55 | 51.28800 | 3.26101 | 35997 ft | 434 kts | 278° |
| 2026-05-04 15:55 | 51.30013 | 3.16712 | 35996 ft | 435 kts | 278° |
| 2026-05-04 15:56 | 51.31229 | 3.07232 | 35995 ft | 436 kts | 278° |
| 2026-05-04 15:56 | 51.32426 | 2.97832 | 35993 ft | 436 kts | 278° |
| 2026-05-04 15:57 | 51.33629 | 2.88320 | 35988 ft | 436 kts | 277° |
| 2026-05-04 15:57 | 51.34817 | 2.78877 | 35995 ft | 436 kts | 278° |
| 2026-05-04 15:58 | 51.36000 | 2.69356 | 35988 ft | 436 kts | 277° |
| 2026-05-04 15:58 | 51.37161 | 2.59847 | 35985 ft | 435 kts | 277° |
| 2026-05-04 15:59 | 51.38315 | 2.50338 | 35988 ft | 435 kts | 277° |
| 2026-05-04 15:59 | 51.39462 | 2.40830 | 35987 ft | 435 kts | 277° |
| 2026-05-04 16:00 | 51.40596 | 2.31381 | 35992 ft | 435 kts | 277° |
| 2026-05-04 16:00 | 51.41735 | 2.21883 | 35986 ft | 434 kts | 278° |
| 2026-05-04 16:01 | 51.42898 | 2.12391 | 35987 ft | 434 kts | 278° |
| 2026-05-04 16:01 | 51.44051 | 2.02911 | 35986 ft | 433 kts | 277° |
| 2026-05-04 16:02 | 51.45176 | 1.93527 | 35995 ft | 433 kts | 277° |
| 2026-05-04 16:03 | 51.46834 | 1.79350 | 36002 ft | 433 kts | 277° |
| 2026-05-04 16:03 | 51.47919 | 1.69834 | 35995 ft | 434 kts | 277° |
| 2026-05-04 16:04 | 51.49002 | 1.60308 | 35995 ft | 434 kts | 277° |
| 2026-05-04 16:04 | 51.50619 | 1.45991 | 36005 ft | 435 kts | 277° |
| 2026-05-04 16:05 | 51.51683 | 1.36486 | 35991 ft | 436 kts | 277° |
| 2026-05-04 16:06 | 51.53280 | 1.22081 | 36003 ft | 437 kts | 277° |
| 2026-05-04 16:07 | 51.55395 | 1.02796 | 36009 ft | 439 kts | 277° |
| 2026-05-04 16:08 | 51.57465 | 0.83587 | 36028 ft | 441 kts | 277° |
| 2026-05-04 16:09 | 51.60064 | 0.59280 | 36022 ft | 441 kts | 278° |
| 2026-05-04 16:10 | 51.62115 | 0.39910 | 36015 ft | 440 kts | 276° |
| 2026-05-04 16:11 | 51.64131 | 0.20473 | 36010 ft | 442 kts | 283° |
| 2026-05-04 16:12 | 51.68854 | 0.07862 | 36034 ft | 450 kts | 312° |
| 2026-05-04 16:12 | 51.75458 | -0.02767 | 36051 ft | 451 kts | 313° |
| 2026-05-04 16:13 | 51.84270 | -0.17205 | 36045 ft | 451 kts | 313° |
| 2026-05-04 16:14 | 51.93009 | -0.31749 | 36050 ft | 450 kts | 313° |
| 2026-05-04 16:16 | 52.03840 | -0.49885 | 36050 ft | 448 kts | 312° |
| 2026-05-04 16:17 | 52.14643 | -0.68108 | 36052 ft | 450 kts | 312° |
| 2026-05-04 16:18 | 52.23320 | -0.82835 | 36043 ft | 451 kts | 313° |
| 2026-05-04 16:19 | 52.31027 | -0.91664 | 36043 ft | 454 kts | 328° |
| 2026-05-04 16:19 | 52.36465 | -0.96905 | 36044 ft | 454 kts | 328° |
| 2026-05-04 16:20 | 52.49854 | -1.10257 | 36034 ft | 453 kts | 328° |
| 2026-05-04 16:22 | 52.62336 | -1.22916 | 36026 ft | 451 kts | 328° |
| 2026-05-04 16:22 | 52.70524 | -1.33309 | 36041 ft | 448 kts | 311° |
| 2026-05-04 16:23 | 52.76054 | -1.43597 | 36050 ft | 448 kts | 311° |
| 2026-05-04 16:25 | 52.88500 | -1.66520 | 36055 ft | 447 kts | 313° |
| 2026-05-04 16:26 | 53.03030 | -1.93366 | 36064 ft | 448 kts | 313° |
| 2026-05-04 16:28 | 53.13372 | -2.12649 | 36056 ft | 449 kts | 313° |
| 2026-05-04 16:29 | 53.27838 | -2.39891 | 36050 ft | 449 kts | 313° |
| 2026-05-04 16:31 | 53.38042 | -2.59293 | 36024 ft | 429 kts | 313° |
| 2026-05-04 16:31 | 53.43743 | -2.70199 | 36059 ft | 412 kts | 313° |
| 2026-05-04 16:32 | 53.49488 | -2.81227 | 36070 ft | 423 kts | 313° |
| 2026-05-04 16:33 | 53.57202 | -2.96126 | 36056 ft | 424 kts | 313° |
| 2026-05-04 16:34 | 53.62953 | -3.07292 | 36058 ft | 423 kts | 313° |
| 2026-05-04 16:35 | 53.74505 | -3.29874 | 36063 ft | 428 kts | 312° |
| 2026-05-04 16:36 | 53.80250 | -3.41183 | 35394 ft | 419 kts | 312° |
| 2026-05-04 16:37 | 53.84038 | -3.48773 | 34179 ft | 426 kts | 308° |
| 2026-05-04 16:37 | 53.85680 | -3.52998 | 33506 ft | 431 kts | 303° |
| 2026-05-04 16:37 | 53.88714 | -3.61807 | 32263 ft | 434 kts | 302° |
| 2026-05-04 16:38 | 53.91781 | -3.70650 | 31094 ft | 435 kts | 303° |
| 2026-05-04 16:39 | 53.96422 | -3.83779 | 29445 ft | 431 kts | 303° |
| 2026-05-04 16:39 | 53.99626 | -3.92408 | 27951 ft | 434 kts | 304° |
| 2026-05-04 16:40 | 54.02856 | -4.00970 | 26395 ft | 438 kts | 304° |
| 2026-05-04 16:40 | 54.06128 | -4.09736 | 25097 ft | 437 kts | 304° |
| 2026-05-04 16:41 | 54.09307 | -4.18319 | 24152 ft | 427 kts | 303° |
| 2026-05-04 16:41 | 54.13996 | -4.31030 | 22553 ft | 416 kts | 303° |
| 2026-05-04 16:42 | 54.18505 | -4.43453 | 20944 ft | 404 kts | 302° |
| 2026-05-04 16:43 | 54.21378 | -4.51532 | 19995 ft | 393 kts | 302° |
| 2026-05-04 16:43 | 54.24192 | -4.59458 | 19052 ft | 386 kts | 302° |
| 2026-05-04 16:43 | 54.25561 | -4.63316 | 18608 ft | 383 kts | 302° |
| 2026-05-04 16:44 | 54.31203 | -4.78488 | 16586 ft | 372 kts | 307° |
| 2026-05-04 16:45 | 54.34338 | -4.85438 | 15606 ft | 366 kts | 308° |
| 2026-05-04 16:46 | 54.38989 | -4.95614 | 14261 ft | 362 kts | 308° |
| 2026-05-04 16:46 | 54.42033 | -5.02224 | 14051 ft | 348 kts | 308° |
| 2026-05-04 16:47 | 54.44944 | -5.08513 | 13798 ft | 322 kts | 308° |
| 2026-05-04 16:47 | 54.47633 | -5.14309 | 13517 ft | 298 kts | 308° |
| 2026-05-04 16:48 | 54.51434 | -5.22483 | 13161 ft | 289 kts | 308° |
| 2026-05-04 16:48 | 54.52687 | -5.25171 | 13007 ft | 288 kts | 308° |
| 2026-05-04 16:49 | 54.55216 | -5.30590 | 12175 ft | 294 kts | 308° |
| 2026-05-04 16:49 | 54.57792 | -5.36096 | 11178 ft | 295 kts | 308° |
| 2026-05-04 16:50 | 54.60381 | -5.41603 | 10208 ft | 295 kts | 308° |
| 2026-05-04 16:50 | 54.62946 | -5.47072 | 9199 ft | 294 kts | 308° |
| 2026-05-04 16:51 | 54.65546 | -5.52608 | 7798 ft | 301 kts | 308° |
| 2026-05-04 16:51 | 54.66866 | -5.55430 | 7060 ft | 303 kts | 308° |
| 2026-05-04 16:51 | 54.69521 | -5.61140 | 5551 ft | 306 kts | 308° |
| 2026-05-04 16:52 | 54.72120 | -5.66765 | 4535 ft | 293 kts | 308° |
| 2026-05-04 16:52 | 54.73374 | -5.69499 | 4115 ft | 284 kts | 308° |
| 2026-05-04 16:53 | 54.75566 | -5.74587 | 3998 ft | 244 kts | 295° |
| 2026-05-04 16:53 | 54.75696 | -5.82617 | 3495 ft | 210 kts | 268° |
| 2026-05-04 16:54 | 54.75460 | -5.85082 | 3314 ft | 205 kts | 256° |
| 2026-05-04 16:55 | 54.73394 | -5.93283 | 3282 ft | 184 kts | 248° |
| 2026-05-04 16:55 | 54.72307 | -5.97288 | 3138 ft | 186 kts | 248° |
| 2026-05-04 16:56 | 54.71254 | -6.01173 | 2636 ft | 175 kts | 249° |
| 2026-05-04 16:56 | 54.69874 | -6.06271 | 2014 ft | 145 kts | 250° |
| 2026-05-04 16:57 | 54.69443 | -6.07871 | 1815 ft | 148 kts | 250° |
| 2026-05-04 16:57 | 54.68561 | -6.11141 | 1390 ft | 152 kts | 248° |
| 2026-05-04 16:58 | 54.67236 | -6.16049 | 767 ft | 149 kts | 247° |
| 2026-05-04 16:58 | 54.66791 | -6.17687 | 576 ft | 152 kts | 248° |
| 2026-05-04 16:59 | 54.65940 | -6.20865 | 273 ft | 132 kts | 248° |
| 2026-05-04 17:00 | 54.65618 | -6.22763 | 273 ft | 5 kts | 342° |
| 2026-05-04 17:00 | 54.65718 | -6.22787 | 271 ft | 5 kts | 32° |
| 2026-05-04 17:01 | 54.65745 | -6.22651 | 271 ft | 7 kts | 87° |
| 2026-05-04 17:01 | 54.65755 | -6.22469 | 271 ft | 8 kts | 83° |
| 2026-05-04 17:02 | 54.65770 | -6.22256 | 271 ft | 9 kts | 83° |
| 2026-05-04 17:02 | 54.65807 | -6.22047 | 271 ft | 9 kts | 65° |
| 2026-05-04 17:03 | 54.65833 | -6.21949 | 272 ft | 9 kts | 65° |
| 2026-05-04 17:03 | 54.65858 | -6.21856 | 273 ft | 9 kts | 65° |
| 2026-05-04 17:03 | 54.65907 | -6.21674 | 271 ft | 8 kts | 65° |
| 2026-05-04 17:04 | 54.65954 | -6.21505 | 271 ft | 8 kts | 52° |
| 2026-05-04 17:04 | 54.66046 | -6.21531 | 274 ft | 2 kts | 335° |
| 2026-05-04 17:05 | 54.66069 | -6.21550 | 271 ft | 1 kts | 335° |
| 2026-05-04 17:05 | 54.66070 | -6.21550 | 271 ft | 0 kts | 335° |